createdAt,value
2023-02-05T00:01:48.240Z,51.10
2023-02-05T00:04:17.531Z,51.10
2023-02-05T00:06:45.466Z,51.10
2023-02-05T00:09:13.495Z,51.20
2023-02-05T00:11:41.441Z,51.30
2023-02-05T00:14:09.317Z,51.20
2023-02-05T00:16:37.387Z,51.20
2023-02-05T00:19:05.388Z,51.20
2023-02-05T00:21:35.161Z,51.10
2023-02-05T00:24:03.158Z,51.10
2023-02-05T00:26:31.095Z,51.10
2023-02-05T00:28:59.047Z,51.10
2023-02-05T00:31:27.372Z,51.10
2023-02-05T00:33:55.484Z,51.10
2023-02-05T00:36:24.110Z,51.10
2023-02-05T00:38:53.484Z,51.10
2023-02-05T00:41:21.752Z,51.10
2023-02-05T00:43:49.832Z,51.10
2023-02-05T00:46:18.156Z,51.10
2023-02-05T00:48:46.013Z,51.10
2023-02-05T00:51:13.906Z,51.10
2023-02-05T00:53:41.838Z,51.10
2023-02-05T00:56:11.049Z,51.10
2023-02-05T00:58:39.133Z,51.00
2023-02-05T01:01:07.306Z,51.10
2023-02-05T01:03:35.291Z,51.10
2023-02-05T01:06:03.384Z,51.00
2023-02-05T01:08:31.398Z,51.10
2023-02-05T01:10:59.579Z,51.10
2023-02-05T01:13:28.913Z,50.90
2023-02-05T01:15:56.828Z,50.90
2023-02-05T01:18:24.691Z,51.00
2023-02-05T01:20:52.586Z,50.90
2023-02-05T01:23:20.544Z,51.00
2023-02-05T01:25:48.879Z,50.90
2023-02-05T01:28:16.809Z,50.90
2023-02-05T01:30:49.970Z,51.00
2023-02-05T01:33:18.472Z,51.00
2023-02-05T01:35:46.401Z,51.00
2023-02-05T01:38:15.045Z,51.00
2023-02-05T01:40:43.101Z,51.00
2023-02-05T01:43:13.838Z,50.90
2023-02-05T01:46:09.172Z,50.90
2023-02-05T01:48:40.668Z,51.00
2023-02-05T01:51:19.942Z,50.90
2023-02-05T01:53:49.594Z,50.90
2023-02-05T01:56:20.726Z,50.90
2023-02-05T01:58:54.042Z,50.90
2023-02-05T02:01:23.927Z,50.90
2023-02-05T02:03:54.554Z,51.00
2023-02-05T02:06:22.454Z,50.90
2023-02-05T02:08:50.329Z,50.90
2023-02-05T02:11:21.420Z,50.90
2023-02-05T02:13:51.659Z,50.90
2023-02-05T02:16:20.133Z,50.90
2023-02-05T02:18:49.569Z,50.90
2023-02-05T02:21:52.538Z,50.90
2023-02-05T02:24:44.081Z,50.90
2023-02-05T02:27:31.904Z,50.90
2023-02-05T02:30:04.570Z,50.90
2023-02-05T02:32:39.171Z,50.90
2023-02-05T02:35:11.384Z,50.90
2023-02-05T02:37:47.441Z,50.90
2023-02-05T02:40:21.455Z,50.90
2023-02-05T02:42:56.597Z,50.90
2023-02-05T02:45:30.334Z,50.90
2023-02-05T02:48:02.238Z,50.90
2023-02-05T02:50:34.774Z,50.90
2023-02-05T02:53:05.284Z,50.90
2023-02-05T02:55:38.731Z,50.90
2023-02-05T02:58:12.427Z,50.90
2023-02-05T03:00:42.426Z,50.90
2023-02-05T03:03:14.569Z,50.90
2023-02-05T03:05:44.572Z,50.90
2023-02-05T03:08:17.521Z,50.90
2023-02-05T03:10:49.830Z,50.90
2023-02-05T03:13:19.861Z,50.90
2023-02-05T03:15:48.499Z,50.90
2023-02-05T03:18:17.837Z,50.90
2023-02-05T03:20:48.904Z,50.90
2023-02-05T03:23:16.798Z,50.90
2023-02-05T03:25:44.742Z,50.90
2023-02-05T03:28:14.147Z,50.90
2023-02-05T03:30:55.607Z,50.80
2023-02-05T03:33:39.264Z,50.80
2023-02-05T03:36:16.001Z,50.80
2023-02-05T03:38:57.570Z,50.90
2023-02-05T03:41:48.735Z,50.90
2023-02-05T03:44:33.017Z,50.80
2023-02-05T03:47:06.969Z,50.80
2023-02-05T03:49:52.288Z,50.80
2023-02-05T03:52:23.673Z,50.80
2023-02-05T03:55:01.038Z,50.80
2023-02-05T03:57:34.288Z,50.80
2023-02-05T04:00:03.427Z,50.80
2023-02-05T04:02:33.470Z,50.80
2023-02-05T04:05:01.530Z,50.80
2023-02-05T04:07:29.438Z,50.80
2023-02-05T04:09:57.285Z,50.80
2023-02-05T04:12:25.139Z,50.70
2023-02-05T04:14:53.070Z,50.80
2023-02-05T04:17:20.963Z,50.80
2023-02-05T04:19:50.145Z,50.80
2023-02-05T04:22:18.017Z,50.80
2023-02-05T04:24:45.884Z,50.80
2023-02-05T04:27:13.723Z,50.80
2023-02-05T04:29:41.587Z,50.80
2023-02-05T04:32:09.554Z,50.80
2023-02-05T04:34:37.460Z,50.70
2023-02-05T04:37:06.675Z,50.70
2023-02-05T04:39:34.574Z,50.80
2023-02-05T04:42:02.763Z,50.70
2023-02-05T04:44:30.708Z,50.70
2023-02-05T04:46:58.587Z,50.80
2023-02-05T04:49:26.772Z,50.70
2023-02-05T04:51:54.632Z,50.80
2023-02-05T04:54:23.837Z,50.80
2023-02-05T04:56:51.667Z,50.80
2023-02-05T04:59:19.516Z,50.80
2023-02-05T05:01:47.455Z,50.80
2023-02-05T05:04:15.332Z,50.70
2023-02-05T05:06:43.191Z,50.70
2023-02-05T05:09:11.107Z,50.80
2023-02-05T05:11:41.122Z,50.70
2023-02-05T05:14:09.026Z,50.70
2023-02-05T05:16:36.890Z,50.70
2023-02-05T05:19:04.804Z,50.70
2023-02-05T05:21:32.682Z,50.70
2023-02-05T05:24:00.688Z,50.70
2023-02-05T05:26:30.057Z,50.60
2023-02-05T05:28:59.398Z,50.80
2023-02-05T05:31:27.566Z,50.80
2023-02-05T05:33:55.418Z,50.70
2023-02-05T05:36:23.333Z,50.70
2023-02-05T05:38:51.231Z,50.70
2023-02-05T05:41:39.676Z,50.70
2023-02-05T05:44:09.734Z,50.60
2023-02-05T05:46:37.957Z,50.60
2023-02-05T05:49:05.905Z,50.60
2023-02-05T05:51:33.878Z,50.60
2023-02-05T05:54:01.737Z,50.60
2023-02-05T05:56:29.625Z,50.60
2023-02-05T05:58:57.486Z,50.60
2023-02-05T06:01:26.689Z,50.60
2023-02-05T06:03:54.518Z,50.60
2023-02-05T06:06:22.422Z,50.60
2023-02-05T06:08:50.265Z,50.60
2023-02-05T06:11:18.109Z,50.60
2023-02-05T06:13:46.022Z,50.60
2023-02-05T06:16:13.950Z,50.60
2023-02-05T06:18:43.186Z,50.60
2023-02-05T06:21:11.048Z,50.60
2023-02-05T06:23:38.945Z,50.60
2023-02-05T06:26:06.911Z,51.00
2023-02-05T06:28:34.810Z,50.60
2023-02-05T06:31:02.745Z,50.60
2023-02-05T06:33:30.815Z,50.60
2023-02-05T06:36:00.045Z,50.60
2023-02-05T06:38:27.928Z,50.60
2023-02-05T06:40:55.745Z,50.70
2023-02-05T06:43:23.650Z,50.60
2023-02-05T06:45:51.502Z,50.60
2023-02-05T06:48:19.365Z,50.60
2023-02-05T06:50:47.455Z,50.60
2023-02-05T06:53:16.638Z,50.60
2023-02-05T06:55:44.562Z,50.60
2023-02-05T06:58:12.425Z,50.60
2023-02-05T07:00:40.281Z,50.60
2023-02-05T07:03:08.150Z,50.60
2023-02-05T07:05:36.473Z,50.60
2023-02-05T07:08:06.718Z,50.60
2023-02-05T07:10:36.000Z,50.60
2023-02-05T07:13:05.853Z,50.60
2023-02-05T07:15:36.106Z,50.60
2023-02-05T07:18:04.877Z,50.60
2023-02-05T07:20:32.958Z,50.60
2023-02-05T07:23:00.884Z,50.60
2023-02-05T07:25:28.854Z,50.60
2023-02-05T07:27:58.036Z,50.60
2023-02-05T07:30:25.890Z,50.60
2023-02-05T07:32:53.729Z,50.60
2023-02-05T07:35:21.918Z,50.60
2023-02-05T07:37:49.749Z,50.60
2023-02-05T07:40:17.793Z,50.60
2023-02-05T07:42:45.651Z,50.60
2023-02-05T07:45:14.857Z,50.60
2023-02-05T07:47:42.793Z,50.60
2023-02-05T07:50:10.935Z,50.60
2023-02-05T07:52:38.791Z,50.60
2023-02-05T07:55:07.305Z,50.60
2023-02-05T07:57:35.148Z,50.60
2023-02-05T08:00:03.010Z,50.60
2023-02-05T08:02:32.199Z,50.60
2023-02-05T08:05:00.073Z,50.60
2023-02-05T08:07:28.049Z,50.60
2023-02-05T08:09:55.927Z,50.60
2023-02-05T08:12:23.771Z,50.60
2023-02-05T08:14:52.682Z,50.60
2023-02-05T08:17:20.573Z,50.60
2023-02-05T08:19:51.182Z,50.60
2023-02-05T08:22:19.039Z,50.60
2023-02-05T08:24:46.887Z,50.60
2023-02-05T08:27:14.743Z,50.60
2023-02-05T08:29:42.647Z,50.60
2023-02-05T08:32:10.503Z,50.60
2023-02-05T08:34:38.377Z,50.60
2023-02-05T08:37:07.597Z,50.60
2023-02-05T08:39:35.548Z,50.60
2023-02-05T08:42:03.412Z,50.60
2023-02-05T08:44:31.965Z,50.60
2023-02-05T08:46:59.887Z,50.70
2023-02-05T08:49:27.742Z,50.60
2023-02-05T08:51:55.652Z,50.70
2023-02-05T08:54:24.897Z,50.60
2023-02-05T08:56:53.122Z,50.60
2023-02-05T08:59:21.629Z,50.60
2023-02-05T09:01:50.171Z,50.60
2023-02-05T09:04:21.332Z,50.50
2023-02-05T09:06:49.316Z,50.60
2023-02-05T09:09:17.561Z,50.50
2023-02-05T09:11:48.422Z,50.50
2023-02-05T09:14:16.735Z,50.60
2023-02-05T09:16:44.669Z,50.60
2023-02-05T09:19:12.569Z,50.70
2023-02-05T09:21:41.604Z,50.70
2023-02-05T09:24:09.479Z,50.70
2023-02-05T09:26:37.426Z,50.60
2023-02-05T09:29:06.636Z,50.70
2023-02-05T09:31:34.631Z,50.70
2023-02-05T09:34:04.228Z,50.70
2023-02-05T09:36:32.118Z,50.70
2023-02-05T09:39:13.405Z,50.70
2023-02-05T09:41:51.988Z,50.70
2023-02-05T09:44:34.777Z,50.60
2023-02-05T09:47:07.060Z,50.60
2023-02-05T09:49:39.239Z,50.60
2023-02-05T09:52:18.639Z,50.60
2023-02-05T09:54:51.775Z,50.60
2023-02-05T09:57:32.493Z,50.60
2023-02-05T10:00:02.325Z,50.60
2023-02-05T10:02:37.650Z,50.60
2023-02-05T10:05:13.466Z,50.60
2023-02-05T10:07:53.354Z,50.60
2023-02-05T10:10:26.100Z,50.60
2023-02-05T10:13:26.867Z,50.60
2023-02-05T10:16:10.832Z,50.60
2023-02-05T10:18:47.673Z,50.60
2023-02-05T10:21:29.386Z,50.60
2023-02-05T10:24:13.737Z,50.70
2023-02-05T10:26:47.469Z,50.70
2023-02-05T10:29:25.520Z,50.70
2023-02-05T10:32:08.270Z,50.70
2023-02-05T10:34:48.795Z,50.70
2023-02-05T10:37:19.068Z,50.70
2023-02-05T10:39:47.635Z,50.70
2023-02-05T10:42:25.111Z,50.70
2023-02-05T10:45:00.909Z,50.70
2023-02-05T10:47:46.169Z,50.70
2023-02-05T10:50:20.763Z,50.70
2023-02-05T10:52:48.680Z,50.70
2023-02-05T10:55:16.739Z,50.70
2023-02-05T10:57:44.652Z,50.70
2023-02-05T11:00:19.383Z,50.70
2023-02-05T11:02:51.165Z,50.70
2023-02-05T11:05:31.252Z,50.70
2023-02-05T11:07:59.426Z,50.80
2023-02-05T11:10:29.244Z,50.70
2023-02-05T11:13:01.644Z,50.70
2023-02-05T11:15:32.340Z,50.70
2023-02-05T11:18:04.215Z,51.40
2023-02-05T11:20:34.440Z,50.80
2023-02-05T11:23:16.775Z,50.80
2023-02-05T11:25:52.624Z,50.70
2023-02-05T11:28:23.772Z,50.80
2023-02-05T11:30:52.916Z,50.70
2023-02-05T11:33:34.842Z,50.70
2023-02-05T11:36:05.008Z,50.70
2023-02-05T11:38:38.449Z,50.70
2023-02-05T11:41:09.808Z,50.90
2023-02-05T11:43:41.243Z,50.70
2023-02-05T11:46:15.605Z,50.70
2023-02-05T11:48:49.356Z,50.70
2023-02-05T11:51:28.971Z,50.80
2023-02-05T11:54:00.077Z,50.70
2023-02-05T11:56:28.069Z,50.70
2023-02-05T11:59:03.055Z,50.80
2023-02-05T12:01:34.224Z,50.80
2023-02-05T12:04:15.670Z,50.80
2023-02-05T12:06:50.969Z,50.80
2023-02-05T12:09:21.666Z,50.80
2023-02-05T12:12:06.527Z,50.80
2023-02-05T12:14:42.858Z,50.80
2023-02-05T12:17:32.908Z,50.80
2023-02-05T12:20:12.626Z,50.80
2023-02-05T12:22:53.628Z,50.80
2023-02-05T12:25:27.000Z,50.80
2023-02-05T12:28:21.414Z,50.80
2023-02-05T12:31:00.076Z,50.80
2023-02-05T12:33:44.961Z,50.80
2023-02-05T12:36:27.526Z,50.80
2023-02-05T12:39:04.356Z,50.80
2023-02-05T12:41:41.839Z,50.80
2023-02-05T12:44:22.884Z,50.80
2023-02-05T12:47:01.539Z,50.80
2023-02-05T12:49:45.025Z,50.80
2023-02-05T12:52:34.558Z,50.80
2023-02-05T12:55:15.964Z,50.80
2023-02-05T12:57:47.434Z,50.80
2023-02-05T13:00:22.815Z,50.90
2023-02-05T13:02:56.529Z,50.80
2023-02-05T13:05:31.709Z,50.80
2023-02-05T13:08:07.637Z,50.80
2023-02-05T13:10:44.842Z,50.80
2023-02-05T13:13:17.707Z,50.90
2023-02-05T13:15:50.659Z,50.90
2023-02-05T13:18:23.990Z,50.90
2023-02-05T13:21:15.075Z,50.90
2023-02-05T13:24:02.121Z,50.90
2023-02-05T13:26:50.810Z,50.80
2023-02-05T13:29:20.654Z,50.90
2023-02-05T13:31:53.463Z,50.90
2023-02-05T13:34:21.717Z,50.90
2023-02-05T13:37:14.018Z,51.60
2023-02-05T13:40:07.837Z,50.90
2023-02-05T13:43:14.104Z,50.90
2023-02-05T13:46:04.052Z,50.90
2023-02-05T13:48:52.738Z,50.90
2023-02-05T13:51:39.108Z,50.90
2023-02-05T13:54:50.549Z,50.90
2023-02-05T13:57:50.323Z,50.90
2023-02-05T14:00:19.076Z,50.90
2023-02-05T14:02:49.628Z,51.00
2023-02-05T14:05:18.494Z,50.90
2023-02-05T14:07:49.094Z,50.90
2023-02-05T14:10:29.474Z,50.90
2023-02-05T14:13:12.541Z,50.90
2023-02-05T14:15:41.708Z,50.90
2023-02-05T14:18:12.334Z,50.90
2023-02-05T14:20:42.591Z,50.90
2023-02-05T14:23:16.249Z,50.90
2023-02-05T14:26:09.982Z,51.00
2023-02-05T14:28:50.302Z,51.00
2023-02-05T14:31:51.489Z,51.00
2023-02-05T14:34:45.276Z,51.00
2023-02-05T14:37:43.307Z,51.00
2023-02-05T14:40:23.962Z,51.00
2023-02-05T14:43:08.508Z,51.00
2023-02-05T14:45:45.548Z,51.00
2023-02-05T14:48:22.356Z,51.00
2023-02-05T14:51:03.219Z,51.00
2023-02-05T14:53:33.072Z,51.00
2023-02-05T14:56:02.139Z,51.00
2023-02-05T14:58:35.120Z,51.00
2023-02-05T15:01:31.924Z,51.00
2023-02-05T15:04:01.072Z,51.00
2023-02-05T15:06:31.504Z,51.00
2023-02-05T15:09:05.403Z,51.00
2023-02-05T15:11:48.473Z,51.00
2023-02-05T15:14:44.340Z,51.00
2023-02-05T15:17:39.525Z,51.00
2023-02-05T15:20:26.978Z,51.00
2023-02-05T15:23:00.008Z,51.00
2023-02-05T15:25:38.052Z,51.20
2023-02-05T15:28:10.780Z,51.00
2023-02-05T15:30:53.580Z,51.00
2023-02-05T15:33:33.949Z,51.00
2023-02-05T15:36:08.633Z,51.00
2023-02-05T15:38:43.818Z,51.00
2023-02-05T15:41:14.902Z,51.00
2023-02-05T15:43:57.662Z,51.00
2023-02-05T15:46:27.862Z,51.00
2023-02-05T15:48:56.877Z,51.00
2023-02-05T15:51:30.197Z,51.00
2023-02-05T15:54:00.476Z,51.00
2023-02-05T15:56:32.187Z,51.00
2023-02-05T15:59:02.856Z,51.00
2023-02-05T16:01:33.479Z,51.00
2023-02-05T16:04:01.708Z,51.00
2023-02-05T16:06:31.379Z,50.90
2023-02-05T16:08:59.276Z,51.00
2023-02-05T16:11:32.202Z,51.00
2023-02-05T16:14:07.926Z,51.00
2023-02-05T16:16:43.143Z,51.00
2023-02-05T16:19:19.418Z,51.00
2023-02-05T16:21:51.580Z,51.00
2023-02-05T16:24:27.620Z,51.00
2023-02-05T16:27:01.771Z,51.00
2023-02-05T16:29:46.102Z,51.00
2023-02-05T16:32:22.676Z,51.10
2023-02-05T16:34:51.214Z,51.00
2023-02-05T16:37:20.373Z,51.10
2023-02-05T16:39:53.452Z,51.70
2023-02-05T16:42:33.365Z,50.90
2023-02-05T16:45:21.160Z,51.10
2023-02-05T16:48:30.710Z,50.90
2023-02-05T16:51:01.289Z,51.00
2023-02-05T16:53:31.061Z,51.00
2023-02-05T16:56:02.538Z,51.00
2023-02-05T16:58:39.510Z,51.00
2023-02-05T17:01:07.532Z,51.00
2023-02-05T17:03:37.267Z,51.00
2023-02-05T17:06:13.192Z,51.00
2023-02-05T17:08:42.354Z,51.00
2023-02-05T17:11:34.343Z,51.00
2023-02-05T17:14:23.496Z,51.00
2023-02-05T17:16:56.648Z,51.00
2023-02-05T17:19:26.933Z,51.00
2023-02-05T17:22:21.578Z,51.00
2023-02-05T17:24:51.907Z,51.00
2023-02-05T17:27:26.013Z,51.00
2023-02-05T17:29:53.997Z,51.00
2023-02-05T17:32:22.984Z,51.00
2023-02-05T17:34:51.168Z,51.00
2023-02-05T17:37:19.248Z,51.00
2023-02-05T17:39:49.755Z,51.10
2023-02-05T17:42:22.039Z,51.00
2023-02-05T17:44:50.441Z,51.00
2023-02-05T17:47:18.639Z,51.00
2023-02-05T17:49:46.821Z,51.00
2023-02-05T17:52:16.021Z,51.00
2023-02-05T17:54:45.186Z,51.00
2023-02-05T17:57:17.620Z,51.00
2023-02-05T17:59:46.149Z,51.10
2023-02-05T18:02:14.951Z,51.00
2023-02-05T18:04:44.733Z,51.00
2023-02-05T18:07:20.421Z,51.00
2023-02-05T18:09:48.356Z,51.10
2023-02-05T18:12:17.622Z,51.00
2023-02-05T18:14:45.478Z,51.10
2023-02-05T18:17:13.444Z,51.10
2023-02-05T18:19:41.330Z,51.10
2023-02-05T18:22:10.396Z,51.10
2023-02-05T18:24:39.225Z,51.10
2023-02-05T18:27:08.406Z,51.10
2023-02-05T18:29:37.781Z,51.00
2023-02-05T18:32:06.457Z,51.10
2023-02-05T18:34:34.552Z,51.10
2023-02-05T18:37:02.517Z,51.10
2023-02-05T18:39:30.429Z,51.10
2023-02-05T18:41:58.603Z,51.10
2023-02-05T18:44:27.211Z,51.10
2023-02-05T18:46:56.425Z,51.10
2023-02-05T18:49:24.398Z,51.10
2023-02-05T18:51:52.662Z,51.10
2023-02-05T18:54:20.515Z,51.00
2023-02-05T18:56:48.985Z,51.00
2023-02-05T18:59:18.332Z,51.10
2023-02-05T19:01:46.296Z,51.10
2023-02-05T19:04:18.561Z,51.10
2023-02-05T19:06:50.647Z,51.10
2023-02-05T19:09:19.405Z,51.10
2023-02-05T19:11:47.497Z,51.10
2023-02-05T19:14:17.117Z,51.70
2023-02-05T19:16:45.687Z,51.10
2023-02-05T19:19:17.337Z,51.00
2023-02-05T19:21:45.340Z,51.10
2023-02-05T19:24:14.608Z,51.10
2023-02-05T19:26:44.231Z,51.10
2023-02-05T19:29:15.164Z,51.20
2023-02-05T19:31:43.744Z,51.10
2023-02-05T19:34:11.877Z,51.10
2023-02-05T19:36:41.216Z,51.10
2023-02-05T19:39:11.808Z,51.00
2023-02-05T19:41:39.920Z,51.00
2023-02-05T19:44:09.557Z,51.10
2023-02-05T19:46:41.571Z,51.10
2023-02-05T19:49:13.416Z,51.10
2023-02-05T19:51:45.488Z,51.10
2023-02-05T19:54:14.916Z,51.10
2023-02-05T19:56:43.134Z,51.10
2023-02-05T19:59:11.325Z,51.10
2023-02-05T20:01:43.608Z,51.00
2023-02-05T20:04:16.082Z,51.10
2023-02-05T20:06:47.353Z,51.60
2023-02-05T20:09:17.150Z,51.10
2023-02-05T20:11:46.924Z,51.00
2023-02-05T20:14:15.380Z,51.00
2023-02-05T20:16:45.148Z,51.00
2023-02-05T20:19:15.328Z,51.00
2023-02-05T20:21:43.803Z,51.00
2023-02-05T20:24:13.073Z,51.10
2023-02-05T20:26:41.083Z,51.00
2023-02-05T20:29:26.463Z,51.00
2023-02-05T20:31:55.132Z,51.00
2023-02-05T20:34:25.705Z,51.00
2023-02-05T20:36:55.457Z,51.00
2023-02-05T20:39:28.494Z,51.00
2023-02-05T20:41:57.875Z,51.00
2023-02-05T20:44:26.798Z,51.00
2023-02-05T20:46:54.989Z,51.00
2023-02-05T20:49:23.534Z,51.00
2023-02-05T20:51:52.922Z,51.00
2023-02-05T20:54:20.906Z,51.00
2023-02-05T20:56:51.221Z,51.00
2023-02-05T20:59:19.143Z,51.00
2023-02-05T21:01:47.060Z,51.00
2023-02-05T21:04:15.063Z,51.00
2023-02-05T21:06:42.945Z,51.00
2023-02-05T21:09:11.449Z,51.00
2023-02-05T21:11:39.983Z,51.00
2023-02-05T21:14:09.870Z,50.90
2023-02-05T21:16:38.630Z,50.90
2023-02-05T21:19:08.672Z,50.90
2023-02-05T21:21:38.102Z,51.00
2023-02-05T21:24:08.765Z,50.90
2023-02-05T21:26:38.607Z,50.90
2023-02-05T21:29:10.070Z,50.90
2023-02-05T21:31:40.579Z,50.90
2023-02-05T21:34:11.556Z,50.90
2023-02-05T21:36:39.568Z,50.90
2023-02-05T21:39:07.647Z,50.90
2023-02-05T21:41:35.533Z,50.90
2023-02-05T21:44:03.815Z,50.90
2023-02-05T21:46:33.086Z,50.90
2023-02-05T21:49:02.019Z,50.90
2023-02-05T21:51:31.778Z,51.00
2023-02-05T21:54:01.609Z,50.90
2023-02-05T21:56:31.667Z,50.90
2023-02-05T21:58:59.559Z,50.90
2023-02-05T22:01:29.439Z,50.90
2023-02-05T22:04:00.400Z,50.90
2023-02-05T22:06:29.933Z,51.00
2023-02-05T22:08:58.832Z,51.00
2023-02-05T22:11:27.391Z,51.00
2023-02-05T22:13:56.367Z,50.90
2023-02-05T22:16:26.207Z,51.00
2023-02-05T22:18:54.964Z,50.90
2023-02-05T22:21:26.817Z,51.00
2023-02-05T22:23:55.899Z,50.90
2023-02-05T22:26:26.003Z,51.00
2023-02-05T22:28:54.104Z,51.00
2023-02-05T22:31:22.384Z,51.00
2023-02-05T22:33:51.074Z,50.90
2023-02-05T22:36:21.544Z,51.00
2023-02-05T22:38:52.145Z,50.80
2023-02-05T22:41:21.852Z,50.90
2023-02-05T22:43:49.752Z,51.00
2023-02-05T22:46:24.272Z,51.00
2023-02-05T22:48:52.982Z,50.90
2023-02-05T22:51:23.110Z,51.00
2023-02-05T22:53:53.096Z,50.90
2023-02-05T22:56:21.727Z,50.90
2023-02-05T22:58:50.147Z,50.80
2023-02-05T23:01:20.034Z,50.90
2023-02-05T23:03:50.757Z,51.00
2023-02-05T23:06:20.743Z,50.90
2023-02-05T23:08:52.455Z,51.00
2023-02-05T23:11:21.242Z,51.00
2023-02-05T23:13:49.739Z,51.00
2023-02-05T23:16:19.950Z,51.00
2023-02-05T23:18:48.258Z,50.90
2023-02-05T23:21:18.630Z,51.20
2023-02-05T23:23:46.540Z,50.80
2023-02-05T23:26:17.514Z,50.90
2023-02-05T23:28:46.254Z,51.00
2023-02-05T23:31:14.233Z,50.80
2023-02-05T23:33:42.466Z,50.90
2023-02-05T23:36:11.389Z,50.90
2023-02-05T23:38:39.630Z,50.80
2023-02-05T23:41:07.662Z,50.80
2023-02-05T23:43:38.051Z,51.00
2023-02-05T23:46:07.054Z,50.80
2023-02-05T23:48:35.561Z,50.80
2023-02-05T23:51:03.534Z,50.90
2023-02-05T23:53:31.380Z,50.90
2023-02-05T23:55:59.215Z,50.80
2023-02-05T23:58:27.968Z,50.90
